Time;durP1;ratioP1;P1;durP2;ratioP2;P2;SDS_P1;SDS_P2;PMS_P1;PMS_P2;Temp;Humidity;BMP_temperature;BMP_pressure;BME280_temperature;BME280_humidity;BME280_pressure;Samples;Min_cycle;Max_cycle;Signal;HPM_P1;HPM_P2
2021/09/02 00:00:11;;;;;;;;;;;;;;;12.23;75.32;97800.94;30002;983;1880;-63
2021/09/02 00:00:42;;;;;;;;;;;;;;;12.23;75.42;97797.41;30002;983;1884;-63
2021/09/02 00:01:13;;;;;;;;;;;;;;;12.21;75.46;97797.69;30002;982;1880;-62
2021/09/02 00:01:43;;;;;;;;;;;;;;;12.22;75.78;97790.34;30002;982;1884;-63
2021/09/02 00:02:14;;;;;;;;;;;;;;;12.22;75.72;97798.50;30002;982;1880;-62
2021/09/02 00:02:45;;;;;;;;;;;;;;;12.22;75.65;97801.22;30002;982;1867;-63
2021/09/02 00:03:16;;;;;;;;;;;;;;;12.19;75.60;97790.91;30001;982;1876;-62
2021/09/02 00:03:47;;;;;;;;;;;;;;;12.18;75.63;97787.34;30001;982;1884;-63
2021/09/02 00:04:18;;;;;;;;;;;;;;;12.18;75.68;97794.72;30001;983;1879;-62
2021/09/02 00:04:49;;;;;;;;;;;;;;;12.17;75.81;97784.91;30002;983;1866;-64
2021/09/02 00:05:19;;;;;;;;;;;;;;;12.16;75.98;97786.00;30001;983;1875;-62
2021/09/02 00:05:50;;;;;;;;;;;;;;;12.16;75.71;97794.16;30001;983;1884;-63
2021/09/02 00:06:21;;;;;;;;;;;;;;;12.15;75.72;97785.19;30001;983;1879;-62
2021/09/02 00:06:52;;;;;;;;;;;;;;;12.15;75.96;97784.38;30001;983;1884;-63
2021/09/02 00:07:23;;;;;;;;;;;;;;;12.15;75.98;97779.75;30001;983;1880;-63
2021/09/02 00:07:54;;;;;;;;;;;;;;;12.15;75.85;97785.19;30001;983;1866;-63
2021/09/02 00:08:24;;;;;;;;;;;;;;;12.14;75.45;97788.19;30001;982;1875;-63
2021/09/02 00:08:55;;;;;;;;;;;;;;;12.14;75.70;97783.56;30001;982;1884;-63
2021/09/02 00:09:27;;;;;;;;;;;;;;;12.14;75.58;97790.91;30002;982;1785;-62
2021/09/02 00:09:57;;;;;;;;;;;;;;;12.13;75.61;97786.59;30001;982;1884;-63
2021/09/02 00:10:28;;;;;;;;;;;;;;;12.14;75.34;97782.75;30001;982;1880;-63
2021/09/02 00:10:59;;;;;;;;;;;;;;;12.13;75.59;97781.16;30001;982;1884;-63
2021/09/02 00:11:30;;;;;;;;;;;;;;;12.11;75.19;97781.44;30001;982;1880;-62
2021/09/02 00:12:01;;;;;;;;;;;;;;;12.11;75.28;97794.22;30001;983;1884;-62
2021/09/02 00:12:32;;;;;;;;;;;;;;;12.10;75.64;97782.53;30001;983;1879;-63
2021/09/02 00:13:03;;;;;;;;;;;;;;;12.10;75.65;97792.59;30001;983;1866;-63
2021/09/02 00:13:34;;;;;;;;;;;;;;;12.10;75.51;97781.72;30001;983;1875;-62
2021/09/02 00:14:05;;;;;;;;;;;;;;;12.11;75.92;97783.34;30001;983;1884;-63
2021/09/02 00:14:36;;;;;;;;;;;;;;;12.10;75.54;97787.16;30001;983;1880;-63
2021/09/02 00:15:07;;;;;;;;;;;;;;;12.10;75.71;97787.16;30001;983;1884;-63
2021/09/02 00:15:38;;;;;;;;;;;;;;;12.07;75.78;97792.06;30001;983;1880;-62
2021/09/02 00:16:09;;;;;;;;;;;;;;;12.07;75.96;97794.78;30001;982;1884;-63
2021/09/02 00:16:40;;;;;;;;;;;;;;;12.05;75.81;97791.53;30001;982;1880;-62
2021/09/02 00:17:11;;;;;;;;;;;;;;;12.05;75.82;97790.72;30001;982;1884;-63
2021/09/02 00:17:42;;;;;;;;;;;;;;;12.05;76.06;97794.25;30001;982;1862;-62
2021/09/02 00:18:13;;;;;;;;;;;;;;;12.05;76.32;97796.97;30001;982;1880;-63
2021/09/02 00:18:44;;;;;;;;;;;;;;;12.03;76.23;97785.56;30001;983;1879;-63
2021/09/02 00:19:15;;;;;;;;;;;;;;;12.03;76.34;97788.28;30001;983;1884;-62
2021/09/02 00:19:46;;;;;;;;;;;;;;;12.04;76.40;97789.91;30001;983;1879;-63
2021/09/02 00:20:17;;;;;;;;;;;;;;;12.03;76.39;97793.72;30001;983;1884;-63
2021/09/02 00:20:48;;;;;;;;;;;;;;;12.02;76.47;97792.09;30001;983;1879;-62
2021/09/02 00:21:19;;;;;;;;;;;;;;;12.01;76.50;97789.66;30001;983;1884;-63
2021/09/02 00:21:50;;;;;;;;;;;;;;;11.98;76.61;97787.47;30001;983;1880;-63
2021/09/02 00:22:21;;;;;;;;;;;;;;;11.97;76.86;97791.28;30001;983;1884;-62
2021/09/02 00:22:51;;;;;;;;;;;;;;;11.95;76.75;97791.56;30001;983;1862;-63
2021/09/02 00:23:22;;;;;;;;;;;;;;;11.93;77.10;97785.59;30001;982;1880;-62
2021/09/02 00:23:53;;;;;;;;;;;;;;;11.92;77.00;97789.41;30001;982;1880;-61
2021/09/02 00:24:24;;;;;;;;;;;;;;;11.91;77.02;97785.06;30001;982;1884;-63
2021/09/02 00:24:55;;;;;;;;;;;;;;;11.90;77.70;97791.59;30001;982;1880;-64
2021/09/02 00:25:26;;;;;;;;;;;;;;;11.89;78.46;97789.16;30001;982;1867;-63
2021/09/02 00:25:57;;;;;;;;;;;;;;;11.84;77.87;97787.25;30001;983;1875;-62
2021/09/02 00:26:28;;;;;;;;;;;;;;;11.83;78.26;97782.09;30001;983;1883;-63
2021/09/02 00:26:59;;;;;;;;;;;;;;;11.82;78.12;97780.47;30001;983;1879;-63
2021/09/02 00:27:30;;;;;;;;;;;;;;;11.79;78.96;97781.84;30001;983;1884;-63
2021/09/02 00:28:01;;;;;;;;;;;;;;;11.75;78.72;97786.22;30001;983;1879;-63
2021/09/02 00:28:32;;;;;;;;;;;;;;;11.72;79.06;97786.75;30001;983;1884;-63
2021/09/02 00:29:02;;;;;;;;;;;;;;;11.70;78.73;97788.94;30001;983;1862;-64
2021/09/02 00:29:33;;;;;;;;;;;;;;;11.70;78.60;97783.50;30001;983;1880;-63
2021/09/02 00:30:05;;;;;;;;;;;;;;;11.69;78.40;97781.88;30001;983;1880;-62
2021/09/02 00:30:36;;;;;;;;;;;;;;;11.68;78.45;97785.69;30001;983;1884;-63
2021/09/02 00:31:07;;;;;;;;;;;;;;;11.66;79.02;97787.88;30001;982;1880;-64
2021/09/02 00:31:38;;;;;;;;;;;;;;;11.64;78.75;97792.78;30001;982;1884;-63
2021/09/02 00:32:08;;;;;;;;;;;;;;;11.62;79.48;97781.34;30001;982;1880;-63
2021/09/02 00:32:39;;;;;;;;;;;;;;;11.61;79.01;97787.88;30001;982;1884;-63
2021/09/02 00:33:17;;;;;;;;;;;;;;;11.61;79.10;97787.88;30001;982;1880;-64
2021/09/02 00:33:49;;;;;;;;;;;;;;;11.61;79.35;97790.59;30001;983;1883;-63
2021/09/02 00:34:20;;;;;;;;;;;;;;;11.58;79.70;97789.25;30001;983;1862;-64
2021/09/02 00:34:51;;;;;;;;;;;;;;;11.56;79.54;97790.63;30001;983;1879;-63
2021/09/02 00:35:21;;;;;;;;;;;;;;;11.55;80.02;97791.72;30001;983;1879;-64
2021/09/02 00:35:52;;;;;;;;;;;;;;;11.53;80.07;97788.44;30001;983;1884;-63
2021/09/02 00:36:23;;;;;;;;;;;;;;;11.51;80.06;97786.00;30001;983;1879;-63
2021/09/02 00:36:54;;;;;;;;;;;;;;;11.49;80.19;97790.91;30001;983;1884;-63
2021/09/02 00:37:25;;;;;;;;;;;;;;;11.49;79.55;97784.66;30001;983;1862;-63
2021/09/02 00:37:56;;;;;;;;;;;;;;;11.48;79.68;97789.28;30001;983;1880;-63
2021/09/02 00:38:26;;;;;;;;;;;;;;;11.47;79.85;97790.37;30001;983;1880;-63
2021/09/02 00:38:57;;;;;;;;;;;;;;;11.46;79.71;97786.03;30001;981;1884;-63
2021/09/02 00:39:28;;;;;;;;;;;;;;;11.47;80.05;97781.41;30001;982;1880;-63
2021/09/02 00:39:59;;;;;;;;;;;;;;;11.46;79.91;97779.78;30001;982;1884;-63
2021/09/02 00:40:30;;;;;;;;;;;;;;;11.45;79.79;97781.69;30001;982;1880;-63
2021/09/02 00:41:01;;;;;;;;;;;;;;;11.45;79.98;97786.28;30001;983;1883;-63
2021/09/02 00:41:32;;;;;;;;;;;;;;;11.45;80.27;97786.28;30001;983;1879;-63
2021/09/02 00:42:04;;;;;;;;;;;;;;;11.43;80.10;97784.66;30001;983;1866;-62
2021/09/02 00:42:34;;;;;;;;;;;;;;;11.43;80.14;97783.06;30001;983;1875;-61
2021/09/02 00:43:05;;;;;;;;;;;;;;;11.43;79.94;97783.06;30001;983;1884;-62
2021/09/02 00:43:40;;;;;;;;;;;;;;;11.40;80.20;97779.81;30001;983;1879;-63
2021/09/02 00:44:11;;;;;;;;;;;;;;;11.39;80.31;97782.81;30001;983;1884;-63
2021/09/02 00:44:43;;;;;;;;;;;;;;;11.35;80.75;97777.09;30001;983;1880;-62
2021/09/02 00:45:14;;;;;;;;;;;;;;;11.34;80.78;97777.38;30001;983;1884;-63
2021/09/02 00:45:45;;;;;;;;;;;;;;;11.32;80.76;97783.09;30001;983;1862;-63
2021/09/02 00:46:16;;;;;;;;;;;;;;;11.30;80.75;97785.25;30001;982;1790;-62
2021/09/02 00:46:47;;;;;;;;;;;;;;;11.30;80.54;97777.13;30001;982;1880;-63
2021/09/02 00:47:18;;;;;;;;;;;;;;;11.29;80.80;97783.63;30001;982;1884;-62
2021/09/02 00:47:49;;;;;;;;;;;;;;;11.28;80.76;97786.62;30001;982;1880;-63
2021/09/02 00:48:20;;;;;;;;;;;;;;;11.27;80.51;97780.38;30001;982;1884;-63
2021/09/02 00:48:51;;;;;;;;;;;;;;;11.26;80.70;97773.31;30001;964;1895;-62
2021/09/02 00:49:22;;;;;;;;;;;;;;;11.25;80.53;97777.13;30001;983;1883;-61
2021/09/02 00:49:54;;;;;;;;;;;;;;;11.27;80.76;97779.56;30001;983;1862;-62
2021/09/02 00:50:24;;;;;;;;;;;;;;;11.26;80.94;97778.75;30001;983;1879;-63
2021/09/02 00:50:56;;;;;;;;;;;;;;;11.23;81.17;97773.06;30001;983;1879;-62
2021/09/02 00:51:26;;;;;;;;;;;;;;;11.21;81.17;97776.03;30001;983;1884;-63
2021/09/02 00:51:58;;;;;;;;;;;;;;;11.21;81.12;97781.47;30001;983;1880;-63
2021/09/02 00:52:30;;;;;;;;;;;;;;;11.21;81.04;97781.47;30001;983;1884;-64
2021/09/02 00:53:02;;;;;;;;;;;;;;;11.22;81.39;97780.38;30001;982;1862;-62
2021/09/02 00:53:33;;;;;;;;;;;;;;;11.21;81.53;97775.22;30001;982;1862;-62
2021/09/02 00:54:04;;;;;;;;;;;;;;;11.19;81.26;97777.41;30001;982;1880;-63
2021/09/02 00:54:35;;;;;;;;;;;;;;;11.17;81.34;97769.53;30001;982;1884;-63
2021/09/02 00:55:07;;;;;;;;;;;;;;;11.16;81.43;97772.53;30001;982;1880;-62
2021/09/02 00:55:38;;;;;;;;;;;;;;;11.15;81.84;97776.31;30001;982;1867;-63
2021/09/02 00:56:09;;;;;;;;;;;;;;;11.13;81.78;97775.78;30001;983;1875;-62
2021/09/02 00:56:40;;;;;;;;;;;;;;;11.13;81.74;97767.63;30001;983;1884;-61
2021/09/02 00:57:12;;;;;;;;;;;;;;;11.12;82.04;97771.44;30001;983;1879;-63
2021/09/02 00:57:43;;;;;;;;;;;;;;;11.09;82.11;97764.66;30001;983;1866;-62
2021/09/02 00:58:13;;;;;;;;;;;;;;;11.08;82.10;97771.19;30001;983;1875;-63
2021/09/02 00:58:45;;;;;;;;;;;;;;;11.07;82.37;97766.84;30001;983;1862;-61
2021/09/02 00:59:16;;;;;;;;;;;;;;;11.07;82.34;97769.56;30001;983;1871;-63
2021/09/02 00:59:48;;;;;;;;;;;;;;;11.05;82.32;97764.41;30001;983;1880;-62
2021/09/02 01:00:19;;;;;;;;;;;;;;;11.06;82.59;97770.66;30001;982;1875;-64
2021/09/02 01:00:50;;;;;;;;;;;;;;;11.03;82.14;97774.72;30001;982;1880;-61
2021/09/02 01:01:21;;;;;;;;;;;;;;;11.04;82.33;97770.13;30001;982;1876;-61
2021/09/02 01:01:55;;;;;;;;;;;;;;;11.04;82.30;97767.41;30001;982;1880;-61
2021/09/02 01:02:27;;;;;;;;;;;;;;;11.02;82.75;97766.88;30001;982;1876;-62
2021/09/02 01:02:58;;;;;;;;;;;;;;;11.02;82.56;97772.28;30001;982;1863;-61
2021/09/02 01:03:29;;;;;;;;;;;;;;;11.01;82.23;97765.22;30001;982;1871;-62
2021/09/02 01:04:03;;;;;;;;;;;;;;;11.00;82.15;97763.59;30001;983;1879;-63
2021/09/02 01:04:34;;;;;;;;;;;;;;;10.99;82.38;97762.78;30001;983;1857;-63
2021/09/02 01:05:06;;;;;;;;;;;;;;;10.99;82.41;97764.69;30001;983;1875;-63
2021/09/02 01:05:37;;;;;;;;;;;;;;;10.99;82.66;97770.13;30001;983;1875;-63
2021/09/02 01:06:08;;;;;;;;;;;;;;;10.98;82.23;97763.88;30001;983;1879;-63
2021/09/02 01:06:40;;;;;;;;;;;;;;;10.98;82.70;97765.78;30001;983;1875;-63
2021/09/02 01:07:11;;;;;;;;;;;;;;;10.98;82.46;97765.78;30001;970;1901;-62
2021/09/02 01:07:42;;;;;;;;;;;;;;;10.98;83.10;97761.16;30001;983;1875;-61
2021/09/02 01:08:14;;;;;;;;;;;;;;;10.96;82.78;97762.53;30001;982;1880;-63
2021/09/02 01:08:46;;;;;;;;;;;;;;;10.96;83.41;97759.81;30001;982;1876;-63
2021/09/02 01:09:17;;;;;;;;;;;;;;;10.93;83.76;97763.88;30001;982;1880;-63
2021/09/02 01:09:48;;;;;;;;;;;;;;;10.91;84.02;97763.34;30001;982;1858;-63
2021/09/02 01:10:20;;;;;;;;;;;;;;;10.89;83.70;97762.78;30001;982;1876;-63
2021/09/02 01:10:51;;;;;;;;;;;;;;;10.90;83.59;97769.03;30001;983;1875;-63
2021/09/02 01:11:23;;;;;;;;;;;;;;;10.89;83.53;97764.69;30001;983;1879;-61
2021/09/02 01:11:55;;;;;;;;;;;;;;;10.88;83.88;97766.59;30001;983;1875;-63
2021/09/02 01:12:39;;;;;;;;;;;;;;;10.87;83.32;97762.25;30001;983;1879;-63
2021/09/02 01:13:10;;;;;;;;;;;;;;;10.88;83.70;97763.06;30001;983;1875;-62
2021/09/02 01:13:44;;;;;;;;;;;;;;;10.86;83.64;97770.66;30001;983;1862;-62
2021/09/02 01:14:18;;;;;;;;;;;;;;;10.84;83.72;97759.25;30001;983;1871;-62
2021/09/02 01:14:49;;;;;;;;;;;;;;;10.85;83.23;97760.91;30001;983;1880;-63
2021/09/02 01:15:24;;;;;;;;;;;;;;;10.85;83.79;97764.41;30001;983;1875;-63
2021/09/02 01:15:55;;;;;;;;;;;;;;;10.84;84.07;97764.69;30001;982;1880;-62
2021/09/02 01:16:26;;;;;;;;;;;;;;;10.83;83.70;97766.59;30001;982;1876;-63
2021/09/02 01:16:57;;;;;;;;;;;;;;;10.82;83.54;97764.97;30001;982;1880;-63
2021/09/02 01:17:28;;;;;;;;;;;;;;;10.82;83.88;97770.41;30001;982;1876;-63
2021/09/02 01:18:00;;;;;;;;;;;;;;;10.83;83.65;97768.50;30001;983;1879;-61
2021/09/02 01:18:31;;;;;;;;;;;;;;;10.83;83.64;97766.59;30001;983;1875;-61
2021/09/02 01:19:02;;;;;;;;;;;;;;;10.85;83.60;97769.03;30001;983;1862;-61
2021/09/02 01:19:33;;;;;;;;;;;;;;;10.83;83.64;97768.50;30001;983;1871;-62
2021/09/02 01:20:05;;;;;;;;;;;;;;;10.83;83.48;97768.50;30001;983;1879;-63
2021/09/02 01:20:36;;;;;;;;;;;;;;;10.84;83.81;97764.69;30001;983;1875;-63
2021/09/02 01:21:07;;;;;;;;;;;;;;;10.82;83.57;97762.25;30001;983;1879;-63
2021/09/02 01:21:38;;;;;;;;;;;;;;;10.84;83.67;97762.78;30001;983;1875;-62
2021/09/02 01:22:09;;;;;;;;;;;;;;;10.84;83.67;97764.69;30001;983;1880;-63
2021/09/02 01:22:40;;;;;;;;;;;;;;;10.83;84.42;97766.59;30001;983;1875;-61
2021/09/02 01:23:15;;;;;;;;;;;;;;;10.83;84.42;97769.31;30001;982;1862;-63
2021/09/02 01:23:45;;;;;;;;;;;;;;;10.82;84.33;97769.59;30001;982;1871;-62
2021/09/02 01:24:16;;;;;;;;;;;;;;;10.82;84.03;97767.69;30001;982;1880;-63
2021/09/02 01:24:47;;;;;;;;;;;;;;;10.81;84.06;97763.34;30001;982;1876;-63
2021/09/02 01:25:20;;;;;;;;;;;;;;;10.82;84.03;97761.44;30001;982;1880;-63
2021/09/02 01:25:50;;;;;;;;;;;;;;;10.80;84.67;97764.44;30001;983;1875;-62
2021/09/02 01:26:24;;;;;;;;;;;;;;;10.80;84.75;97764.44;30001;983;1879;-61
2021/09/02 01:26:55;;;;;;;;;;;;;;;10.80;84.56;97764.44;30001;983;1875;-61
2021/09/02 01:27:26;;;;;;;;;;;;;;;10.79;84.89;97761.97;30001;983;1879;-63
2021/09/02 01:27:59;;;;;;;;;;;;;;;10.78;84.92;97754.94;30001;983;1875;-62
2021/09/02 01:28:31;;;;;;;;;;;;;;;10.78;84.58;97760.34;30001;983;1862;-63
2021/09/02 01:29:02;;;;;;;;;;;;;;;10.79;84.93;97761.97;30001;983;1871;-62
2021/09/02 01:29:33;;;;;;;;;;;;;;;10.79;84.64;97759.25;30001;983;1880;-63
2021/09/02 01:30:06;;;;;;;;;;;;;;;10.79;84.31;97761.97;30001;983;1858;-62
2021/09/02 01:30:38;;;;;;;;;;;;;;;10.79;84.56;97759.25;30001;982;1875;-62
2021/09/02 01:31:13;;;;;;;;;;;;;;;10.79;84.74;97761.97;30001;982;1875;-63
2021/09/02 01:31:44;;;;;;;;;;;;;;;10.79;85.03;97761.97;30001;982;1880;-62
2021/09/02 01:32:15;;;;;;;;;;;;;;;10.77;84.75;97759.53;30001;982;1876;-62
2021/09/02 01:32:46;;;;;;;;;;;;;;;10.78;84.53;97760.34;30001;982;1880;-63
2021/09/02 01:33:17;;;;;;;;;;;;;;;10.78;85.05;97763.06;30001;983;1875;-63
2021/09/02 01:33:49;;;;;;;;;;;;;;;10.77;85.30;97761.44;30001;983;1879;-63
2021/09/02 01:34:20;;;;;;;;;;;;;;;10.76;84.95;97768.78;30001;983;1857;-61
2021/09/02 01:34:55;;;;;;;;;;;;;;;10.74;85.14;97754.69;30001;983;1875;-62
2021/09/02 01:35:26;;;;;;;;;;;;;;;10.75;84.68;97756.28;30001;983;1875;-61
2021/09/02 01:35:57;;;;;;;;;;;;;;;10.74;84.64;97754.69;30001;983;1879;-63
2021/09/02 01:36:28;;;;;;;;;;;;;;;10.74;84.81;97763.59;30001;983;1875;-61
2021/09/02 01:36:58;;;;;;;;;;;;;;;10.74;84.35;97749.25;30001;983;1880;-64
2021/09/02 01:37:47;;;;;;;;;;;;;;;10.74;84.70;97757.41;30001;982;1786;-62
2021/09/02 01:38:18;;;;;;;;;;;;;;;10.74;84.71;97754.69;30001;982;1871;-62
2021/09/02 01:38:49;;;;;;;;;;;;;;;10.73;84.33;97753.88;30001;982;1858;-63
2021/09/02 01:39:20;;;;;;;;;;;;;;;10.74;84.50;97755.47;30001;982;1876;-61
2021/09/02 01:39:51;;;;;;;;;;;;;;;10.73;84.55;97756.59;30001;982;1876;-62
2021/09/02 01:40:29;;;;;;;;;;;;;;;10.73;84.31;97759.31;30001;982;1880;-63
2021/09/02 01:40:59;;;;;;;;;;;;;;;10.70;85.03;97754.41;30001;983;1875;-62
2021/09/02 01:41:30;;;;;;;;;;;;;;;10.70;85.14;97759.84;30001;983;1879;-62
2021/09/02 01:42:01;;;;;;;;;;;;;;;10.68;85.18;97753.88;30001;983;1875;-63
2021/09/02 01:42:34;;;;;;;;;;;;;;;10.67;84.91;97754.13;30001;983;1879;-63
2021/09/02 01:43:05;;;;;;;;;;;;;;;10.65;84.88;97751.69;30001;983;1875;-62
2021/09/02 01:43:36;;;;;;;;;;;;;;;10.66;84.71;97747.91;30001;983;1879;-62
2021/09/02 01:44:07;;;;;;;;;;;;;;;10.66;84.64;97750.59;30001;983;1858;-61
2021/09/02 01:44:38;;;;;;;;;;;;;;;10.64;84.38;97750.06;30001;983;1875;-62
2021/09/02 01:45:10;;;;;;;;;;;;;;;10.65;84.60;97746.28;30001;982;1875;-63
2021/09/02 01:45:41;;;;;;;;;;;;;;;10.65;84.29;97748.97;30001;982;1880;-63
2021/09/02 01:46:12;;;;;;;;;;;;;;;10.66;84.59;97747.09;30001;982;1876;-63
2021/09/02 01:46:45;;;;;;;;;;;;;;;10.66;84.47;97747.91;30001;982;1880;-63
2021/09/02 01:47:20;;;;;;;;;;;;;;;10.65;84.20;97746.28;30001;982;1876;-63
2021/09/02 01:47:50;;;;;;;;;;;;;;;10.65;84.23;97743.56;30001;982;1880;-63
2021/09/02 01:48:22;;;;;;;;;;;;;;;10.66;84.49;97745.19;30001;983;1875;-63
2021/09/02 01:48:54;;;;;;;;;;;;;;;10.64;84.43;97744.63;30001;983;1879;-63
2021/09/02 01:49:24;;;;;;;;;;;;;;;10.65;84.42;97746.28;30001;983;1857;-63
2021/09/02 01:50:02;;;;;;;;;;;;;;;10.64;84.15;97744.63;30001;983;1875;-62
2021/09/02 01:50:35;;;;;;;;;;;;;;;10.64;84.37;97747.34;30001;983;1875;-61
2021/09/02 01:51:06;;;;;;;;;;;;;;;10.64;84.24;97744.63;30001;983;1880;-63
2021/09/02 01:51:37;;;;;;;;;;;;;;;10.64;84.51;97741.91;30001;983;1875;-63
2021/09/02 01:52:09;;;;;;;;;;;;;;;10.65;84.16;97743.56;30001;983;1880;-62
2021/09/02 01:52:40;;;;;;;;;;;;;;;10.65;84.32;97740.84;30001;982;1875;-62
2021/09/02 01:53:13;;;;;;;;;;;;;;;10.65;84.17;97751.69;30001;982;1880;-63
2021/09/02 01:53:44;;;;;;;;;;;;;;;10.65;84.24;97740.84;30001;982;1858;-62
2021/09/02 01:54:15;;;;;;;;;;;;;;;10.66;84.22;97747.91;30001;982;1876;-63
2021/09/02 01:54:47;;;;;;;;;;;;;;;10.66;84.24;97747.09;30001;982;1876;-62
2021/09/02 01:55:18;;;;;;;;;;;;;;;10.66;84.20;97747.91;30001;983;1879;-63
2021/09/02 01:55:48;;;;;;;;;;;;;;;10.67;84.39;97741.38;30001;983;1875;-62
2021/09/02 01:56:19;;;;;;;;;;;;;;;10.68;84.11;97745.72;30001;983;1879;-63
2021/09/02 01:56:50;;;;;;;;;;;;;;;10.70;84.60;97742.75;30001;983;1875;-63
2021/09/02 01:57:21;;;;;;;;;;;;;;;10.70;84.36;97748.16;30001;983;1879;-63
2021/09/02 01:57:52;;;;;;;;;;;;;;;10.70;84.37;97743.56;30001;983;1875;-61
2021/09/02 01:58:23;;;;;;;;;;;;;;;10.70;84.35;97748.97;30001;983;1862;-63
2021/09/02 01:58:54;;;;;;;;;;;;;;;10.72;84.40;97743.28;30001;983;1871;-62
2021/09/02 01:59:25;;;;;;;;;;;;;;;10.72;84.04;97741.38;30001;983;1880;-63
2021/09/02 01:59:55;;;;;;;;;;;;;;;10.74;84.28;97743.81;30001;982;1875;-63
2021/09/02 02:00:27;;;;;;;;;;;;;;;10.75;84.16;97745.41;30001;982;1880;-63
2021/09/02 02:00:57;;;;;;;;;;;;;;;10.74;84.26;97738.41;30001;982;1876;-62
2021/09/02 02:01:28;;;;;;;;;;;;;;;10.75;83.91;97740.81;30001;982;1880;-63
2021/09/02 02:02:00;;;;;;;;;;;;;;;10.75;84.20;97746.25;30001;982;1876;-62
2021/09/02 02:02:30;;;;;;;;;;;;;;;10.75;84.06;97746.25;30001;983;1879;-62
2021/09/02 02:03:02;;;;;;;;;;;;;;;10.73;84.55;97737.59;30001;983;1875;-62
2021/09/02 02:03:33;;;;;;;;;;;;;;;10.73;84.38;97740.28;30001;983;1862;-62
2021/09/02 02:04:04;;;;;;;;;;;;;;;10.72;84.26;97741.38;30001;983;1853;-63
2021/09/02 02:04:35;;;;;;;;;;;;;;;10.73;84.27;97742.19;30001;983;1808;-62
2021/09/02 02:05:06;;;;;;;;;;;;;;;10.72;84.63;97741.38;30001;983;1875;-63
2021/09/02 02:05:37;;;;;;;;;;;;;;;10.70;84.75;97748.97;30001;983;1879;-63
2021/09/02 02:06:08;;;;;;;;;;;;;;;10.68;85.11;97748.44;30001;983;1875;-63
2021/09/02 02:06:39;;;;;;;;;;;;;;;10.65;85.10;97740.84;30001;983;1880;-63
2021/09/02 02:07:09;;;;;;;;;;;;;;;10.65;85.30;97738.13;30001;983;1775;-64
2021/09/02 02:07:41;;;;;;;;;;;;;;;10.66;85.22;97741.66;30001;982;1880;-63
2021/09/02 02:08:16;;;;;;;;;;;;;;;10.64;85.25;97744.63;30001;982;1875;-63
2021/09/02 02:08:47;;;;;;;;;;;;;;;10.63;85.21;97748.44;30001;982;1862;-63
2021/09/02 02:09:17;;;;;;;;;;;;;;;10.64;85.00;97743.81;30001;982;1871;-62
2021/09/02 02:09:48;;;;;;;;;;;;;;;10.65;84.77;97746.28;30001;982;1880;-63
2021/09/02 02:10:22;;;;;;;;;;;;;;;10.65;85.18;97746.28;30001;983;1875;-62
2021/09/02 02:10:53;;;;;;;;;;;;;;;10.64;85.14;97750.06;30001;983;1862;-63
2021/09/02 02:11:24;;;;;;;;;;;;;;;10.64;84.91;97744.63;30001;983;1871;-63
2021/09/02 02:11:55;;;;;;;;;;;;;;;10.66;84.52;97741.66;30001;983;1879;-63
2021/09/02 02:12:26;;;;;;;;;;;;;;;10.66;84.64;97742.47;30001;983;1875;-61
2021/09/02 02:12:58;;;;;;;;;;;;;;;10.67;84.73;97746.81;30001;983;1879;-63
2021/09/02 02:13:29;;;;;;;;;;;;;;;10.67;84.62;97746.81;30001;983;1875;-63
2021/09/02 02:13:59;;;;;;;;;;;;;;;10.67;84.50;97744.09;30001;983;1862;-62
2021/09/02 02:14:30;;;;;;;;;;;;;;;10.67;84.98;97744.09;30001;983;1871;-63
2021/09/02 02:15:01;;;;;;;;;;;;;;;10.65;84.91;97743.56;30001;982;1880;-61
2021/09/02 02:15:32;;;;;;;;;;;;;;;10.65;85.41;97746.28;30001;982;1875;-63
2021/09/02 02:16:03;;;;;;;;;;;;;;;10.63;85.47;97743.00;30001;982;1880;-62
2021/09/02 02:16:34;;;;;;;;;;;;;;;10.64;85.59;97749.25;30001;982;1876;-63
2021/09/02 02:17:05;;;;;;;;;;;;;;;10.63;85.64;97747.63;30001;982;1880;-62
2021/09/02 02:17:36;;;;;;;;;;;;;;;10.61;85.57;97738.94;30001;983;1875;-62
2021/09/02 02:18:07;;;;;;;;;;;;;;;10.62;85.52;97740.56;30001;983;1862;-62
2021/09/02 02:18:38;;;;;;;;;;;;;;;10.62;85.11;97738.66;30001;983;1871;-62
2021/09/02 02:19:09;;;;;;;;;;;;;;;10.62;85.18;97746.81;30001;983;1879;-62
2021/09/02 02:19:40;;;;;;;;;;;;;;;10.62;85.00;97746.81;30001;983;1875;-63
2021/09/02 02:20:12;;;;;;;;;;;;;;;10.62;85.16;97746.81;30001;983;1862;-63
2021/09/02 02:20:43;;;;;;;;;;;;;;;10.61;85.03;97742.47;30001;983;1871;-61
2021/09/02 02:21:14;;;;;;;;;;;;;;;10.62;85.00;97740.56;30001;983;1862;-63
2021/09/02 02:21:45;;;;;;;;;;;;;;;10.62;84.88;97741.38;30001;983;1871;-62
2021/09/02 02:22:16;;;;;;;;;;;;;;;10.61;84.87;97739.75;30001;983;1880;-62
2021/09/02 02:22:47;;;;;;;;;;;;;;;10.60;84.96;97738.13;30001;982;1875;-63
2021/09/02 02:23:18;;;;;;;;;;;;;;;10.60;85.27;97738.13;30001;982;1880;-62
2021/09/02 02:23:49;;;;;;;;;;;;;;;10.60;84.81;97740.84;30001;982;1876;-63
2021/09/02 02:24:20;;;;;;;;;;;;;;;10.59;85.32;97739.22;30001;982;1880;-63
2021/09/02 02:24:51;;;;;;;;;;;;;;;10.57;85.53;97744.09;30001;982;1876;-62
2021/09/02 02:25:23;;;;;;;;;;;;;;;10.56;85.54;97741.66;30001;983;1879;-63
2021/09/02 02:25:54;;;;;;;;;;;;;;;10.55;85.56;97735.41;30001;972;1893;-64
2021/09/02 02:26:25;;;;;;;;;;;;;;;10.54;85.32;97733.78;30001;983;1862;-62
2021/09/02 02:26:56;;;;;;;;;;;;;;;10.54;85.20;97741.91;30001;983;1853;-63
2021/09/02 02:27:27;;;;;;;;;;;;;;;10.53;85.31;97747.63;30001;983;1879;-62
2021/09/02 02:27:58;;;;;;;;;;;;;;;10.53;85.41;97737.56;30001;983;1875;-64
2021/09/02 02:28:29;;;;;;;;;;;;;;;10.52;85.52;97735.94;30001;983;1880;-63
2021/09/02 02:29:00;;;;;;;;;;;;;;;10.54;85.21;97744.63;30001;983;1875;-64
2021/09/02 02:29:30;;;;;;;;;;;;;;;10.56;85.16;97742.47;30001;982;1880;-63
2021/09/02 02:30:03;;;;;;;;;;;;;;;10.56;85.31;97737.03;30001;982;1875;-62
2021/09/02 02:30:34;;;;;;;;;;;;;;;10.56;85.04;97741.66;30001;982;1880;-62
2021/09/02 02:31:05;;;;;;;;;;;;;;;10.57;85.14;97746.00;30001;982;1858;-63
2021/09/02 02:31:36;;;;;;;;;;;;;;;10.56;84.99;97739.75;30001;982;1876;-63
2021/09/02 02:32:07;;;;;;;;;;;;;;;10.56;85.19;97736.22;30001;982;1876;-63
2021/09/02 02:32:39;;;;;;;;;;;;;;;10.56;84.73;97737.03;30001;983;1879;-63
2021/09/02 02:33:09;;;;;;;;;;;;;;;10.56;85.24;97737.03;30001;983;1875;-62
2021/09/02 02:33:40;;;;;;;;;;;;;;;10.57;85.35;97744.09;30001;983;1862;-62
2021/09/02 02:34:11;;;;;;;;;;;;;;;10.56;85.28;97737.03;30001;983;1794;-64
2021/09/02 02:34:42;;;;;;;;;;;;;;;10.57;85.37;97740.56;30001;983;1879;-63
2021/09/02 02:35:14;;;;;;;;;;;;;;;10.57;85.24;97744.09;30001;983;1858;-62
2021/09/02 02:35:44;;;;;;;;;;;;;;;10.56;85.39;97737.03;30001;983;1875;-62
2021/09/02 02:36:15;;;;;;;;;;;;;;;10.57;85.44;97733.25;30001;983;1875;-63
2021/09/02 02:36:46;;;;;;;;;;;;;;;10.57;85.16;97738.66;30001;982;1880;-63
2021/09/02 02:37:17;;;;;;;;;;;;;;;10.54;85.84;97739.22;30001;982;1875;-61
2021/09/02 02:37:48;;;;;;;;;;;;;;;10.53;85.39;97737.56;30001;982;1880;-63
2021/09/02 02:38:20;;;;;;;;;;;;;;;10.54;85.50;97743.81;30001;982;1876;-63
2021/09/02 02:38:51;;;;;;;;;;;;;;;10.54;85.41;97732.97;30001;982;1880;-63
2021/09/02 02:39:22;;;;;;;;;;;;;;;10.51;85.54;97734.31;30001;982;1876;-61
2021/09/02 02:39:53;;;;;;;;;;;;;;;10.53;85.13;97740.28;30001;982;1880;-63
2021/09/02 02:40:23;;;;;;;;;;;;;;;10.52;85.29;97741.38;30001;983;1857;-63
2021/09/02 02:40:54;;;;;;;;;;;;;;;10.51;85.32;97731.59;30001;983;1875;-63
2021/09/02 02:41:25;;;;;;;;;;;;;;;10.51;85.55;97728.88;30001;983;1875;-63
2021/09/02 02:41:56;;;;;;;;;;;;;;;10.51;85.28;97734.31;30001;983;1879;-62
2021/09/02 02:42:27;;;;;;;;;;;;;;;10.51;85.56;97734.31;30001;983;1875;-63
2021/09/02 02:42:58;;;;;;;;;;;;;;;10.50;85.69;97738.13;30001;983;1880;-63
2021/09/02 02:43:29;;;;;;;;;;;;;;;10.51;85.68;97745.16;30001;983;1875;-63
2021/09/02 02:44:00;;;;;;;;;;;;;;;10.51;85.68;97734.31;30001;983;1862;-61
2021/09/02 02:44:31;;;;;;;;;;;;;;;10.50;85.46;97735.41;30001;982;1871;-65
2021/09/02 02:45:02;;;;;;;;;;;;;;;10.50;85.69;97729.97;30001;982;1880;-63
2021/09/02 02:45:33;;;;;;;;;;;;;;;10.50;85.53;97732.69;30001;982;1876;-63
2021/09/02 02:46:04;;;;;;;;;;;;;;;10.49;85.50;97736.50;30001;982;1880;-62
2021/09/02 02:46:34;;;;;;;;;;;;;;;10.49;85.62;97736.50;30001;982;1876;-62
2021/09/02 02:47:06;;;;;;;;;;;;;;;10.49;85.68;97736.50;30001;982;1880;-63
2021/09/02 02:47:37;;;;;;;;;;;;;;;10.49;85.82;97736.50;30001;982;1858;-63